Midland, MI

7:04 AM EDT on October 22, 2017 (GMT -0400)
Barstow

Weather History for KIKW - October, 2012

Change the Weather History Date:

Sunday, October 28, 2012

  Actual Average (KMBS) Record (KMBS)
Temperature  
Mean Temperature 40 °F -  
Max Temperature 48 °F 52 °F 70 °F (2014)
Min Temperature 32 °F 35 °F 24 °F (1997)
Degree Days  
Heating Degree Days 25    
Moisture  
Dew Point 27 °F    
Average Humidity 62    
Maximum Humidity 85    
Minimum Humidity 38    
Precipitation  
Precipitation 0.00 in - - ()
Sea Level Pressure  
Sea Level Pressure 30.23 in    
Wind  
Wind Speed 7 mph (North)    
Max Wind Speed 16 mph    
Max Gust Speed 24 mph    
Visibility 10 miles    
Events      
Averages and records for this station are not official NWS values.
T = Trace of Precipitation, MM = Missing Value Source: NWS Daily Summary

Daily Weather History Graph

Daily Weather History Graph

Search for Another Location

Airport or City:

Trip Planner

Search our weather history database for the weather conditions in past years. The results will help you decide how hot, cold, wet, or windy it might be!

Date:

Astronomy

Oct. 28, 2012 Rise Set
Actual Time 8:08 AM EDT 6:32 PM EDT
Civil Twilight 7:38 AM EDT 7:02 PM EDT
Nautical Twilight 7:04 AM EDT 7:35 PM EDT
Astronomical Twilight 6:31 AM EDT 8:09 PM EDT
Moon 5:50 PM EDT (10/28) 6:59 AM EDT (10/28)
Length of Visible Light 11h 23m
Length of Day
10h 24m
Waxing Gibbous, 99% of the Moon is Illuminated
Oct 28
Waxing Gibbous
Oct 29
Full
Nov 6
Last Quarter
Nov 13
New
Nov 20
First Quarter

Hourly Weather History & Observations

Time (EDT) Temp. Windchill Dew Point Humidity Pressure Visibility Wind Dir Wind Speed Gust Speed Precip Events Conditions
12:14 AM 32.7 °F 29.6 °F 28.8 °F 85% 30.26 in 10.0 mi NNW 3.5 mph - N/A   Clear
12:53 AM 34.0 °F 29.8 °F 28.6 °F 81% 30.25 in 10.0 mi NNW 4.6 mph - N/A   Clear
1:13 AM 33.8 °F 30.8 °F 28.9 °F 82% 30.26 in 10.0 mi NW 3.5 mph - N/A   Clear
1:33 AM 33.6 °F 29.4 °F 28.9 °F 83% 30.25 in 10.0 mi NW 4.6 mph - N/A   Clear
1:53 AM 32.9 °F 28.5 °F 28.4 °F 84% 30.25 in 10.0 mi NNW 4.6 mph - N/A   Clear
2:13 AM 33.4 °F 29.1 °F 28.4 °F 82% 30.26 in 10.0 mi NW 4.6 mph - N/A   Clear
2:33 AM 32.7 °F 28.3 °F 27.5 °F 81% 30.26 in 10.0 mi NNW 4.6 mph - N/A   Clear
2:53 AM 32.9 °F 27.5 °F 27.5 °F 81% 30.27 in 10.0 mi NNW 5.8 mph - N/A   Mostly Cloudy
3:13 AM 33.8 °F 28.6 °F 28.0 °F 79% 30.27 in 10.0 mi NNW 5.8 mph - N/A   Overcast
3:33 AM 33.8 °F 28.6 °F 27.5 °F 78% 30.27 in 10.0 mi NNW 5.8 mph - N/A   Scattered Clouds
3:53 AM 33.6 °F 27.5 °F 27.1 °F 77% 30.26 in 10.0 mi NNW 6.9 mph - N/A   Scattered Clouds
4:13 AM 33.6 °F 28.4 °F 26.6 °F 75% 30.25 in 10.0 mi NNW 5.8 mph - N/A   Clear
4:33 AM 33.3 °F 27.9 °F 26.4 °F 76% 30.25 in 10.0 mi NNW 5.8 mph - N/A   Clear
4:53 AM 33.8 °F 29.6 °F 26.2 °F 74% 30.25 in 10.0 mi North 4.6 mph - N/A   Clear
5:13 AM 33.8 °F 28.6 °F 26.2 °F 74% 30.26 in 10.0 mi North 5.8 mph - N/A   Clear
5:33 AM 33.8 °F 29.6 °F 26.2 °F 74% 30.25 in 10.0 mi North 4.6 mph - N/A   Clear
5:53 AM 33.8 °F 29.6 °F 26.6 °F 75% 30.25 in 10.0 mi North 4.6 mph - N/A   Clear
6:14 AM 33.6 °F 28.4 °F 27.1 °F 77% 30.26 in 10.0 mi North 5.8 mph - N/A   Clear
6:33 AM 33.4 °F 28.1 °F 27.5 °F 79% 30.26 in 10.0 mi North 5.8 mph - N/A   Clear
6:53 AM 32.9 °F 25.9 °F 27.5 °F 81% 30.26 in 10.0 mi North 8.1 mph - N/A   Clear
7:14 AM 32.9 °F 26.7 °F 28.2 °F 83% 30.26 in 10.0 mi NNW 6.9 mph - N/A   Scattered Clouds
7:33 AM 33.8 °F 27.7 °F 29.1 °F 83% 30.26 in 10.0 mi North 6.9 mph - N/A   Overcast
7:53 AM 34.0 °F 26.6 °F 29.3 °F 83% 30.25 in 10.0 mi North 9.2 mph - N/A   Overcast
8:14 AM 34.7 °F 28.1 °F 29.3 °F 81% 30.25 in 10.0 mi North 8.1 mph 17.3 mph N/A   Overcast
8:33 AM 34.7 °F 27.5 °F 29.3 °F 81% 30.25 in 10.0 mi North 9.2 mph - N/A   Mostly Cloudy
8:53 AM 35.8 °F 28.3 °F 29.1 °F 77% 30.26 in 10.0 mi North 10.4 mph 16.1 mph N/A   Mostly Cloudy
9:13 AM 37.0 °F 29.3 °F 29.3 °F 74% 30.26 in 10.0 mi NNW 11.5 mph 17.3 mph N/A   Mostly Cloudy
9:33 AM 37.8 °F 31.8 °F 29.1 °F 71% 30.26 in 10.0 mi North 8.1 mph 16.1 mph N/A   Scattered Clouds
9:53 AM 39.4 °F 33.2 °F 29.1 °F 67% 30.26 in 10.0 mi North 9.2 mph - N/A   Clear
10:13 AM 41.0 °F 34.3 °F 28.9 °F 62% 30.25 in 10.0 mi North 11.5 mph 16.1 mph N/A   Clear
10:33 AM 42.3 °F 36.8 °F 29.1 °F 60% 30.25 in 10.0 mi North 9.2 mph 19.6 mph N/A   Clear
10:54 AM 43.0 °F 36.8 °F 29.5 °F 59% 30.25 in 10.0 mi NNE 11.5 mph 17.3 mph N/A   Clear
11:13 AM 44.1 °F 37.4 °F 29.8 °F 57% 30.25 in 10.0 mi North 13.8 mph 19.6 mph N/A   Mostly Cloudy
11:33 AM 45.9 °F 40.4 °F 31.3 °F 57% 30.26 in 10.0 mi NNE 11.5 mph 18.4 mph N/A   Overcast
11:53 AM 44.4 °F 37.9 °F 30.2 °F 57% 30.27 in 10.0 mi NE 13.8 mph 20.7 mph N/A   Overcast
12:13 PM 43.7 °F 37.7 °F 30.4 °F 59% 30.26 in 10.0 mi NNE 11.5 mph 18.4 mph N/A   Mostly Cloudy
12:34 PM 46.9 °F - 31.6 °F 55% 30.25 in 10.0 mi NNE 15.0 mph 21.9 mph N/A   Mostly Cloudy
12:53 PM 46.9 °F - 31.1 °F 54% 30.24 in 10.0 mi NE 10.4 mph 24.2 mph N/A   Scattered Clouds
1:13 PM 48.2 °F - 31.1 °F 52% 30.23 in 10.0 mi NE 16.1 mph 20.7 mph N/A   Scattered Clouds
1:34 PM 48.9 °F - 31.3 °F 51% 30.22 in 10.0 mi NNE 12.7 mph 20.7 mph N/A   Mostly Cloudy
1:53 PM 46.8 °F - 29.5 °F 51% 30.22 in 10.0 mi North 10.4 mph 18.4 mph N/A   Overcast
2:14 PM 46.6 °F - 28.0 °F 49% 30.22 in 10.0 mi NNE 11.5 mph 17.3 mph N/A   Overcast
2:34 PM 46.2 °F 41.7 °F 30.0 °F 53% 30.20 in 10.0 mi NE 9.2 mph - N/A   Mostly Cloudy
2:53 PM 47.8 °F - 31.5 °F 53% 30.20 in 10.0 mi ENE 11.5 mph 21.9 mph N/A   Scattered Clouds
3:14 PM 48.2 °F - 27.0 °F 44% 30.19 in 10.0 mi NNE 6.9 mph - N/A   Scattered Clouds
3:33 PM 47.7 °F - 23.9 °F 39% 30.19 in 10.0 mi NNE 9.2 mph 18.4 mph N/A   Scattered Clouds
3:53 PM 48.0 °F - 24.8 °F 40% 30.19 in 10.0 mi NNE 4.6 mph - N/A   Scattered Clouds
4:14 PM 48.2 °F - 23.7 °F 38% 30.19 in 10.0 mi NNE 10.4 mph - N/A   Scattered Clouds
4:33 PM 47.3 °F - 22.8 °F 38% 30.20 in 10.0 mi NNE 9.2 mph - N/A   Clear
4:54 PM 46.4 °F 41.1 °F 22.1 °F 38% 30.19 in 10.0 mi NNE 11.5 mph - N/A   Clear
5:13 PM 46.4 °F 41.9 °F 22.1 °F 38% 30.19 in 10.0 mi NE 9.2 mph - N/A   Clear
5:33 PM 45.5 °F 42.5 °F 22.5 °F 40% 30.20 in 10.0 mi NE 5.8 mph 11.5 mph N/A   Clear
5:54 PM 44.6 °F 39.7 °F 23.4 °F 43% 30.20 in 10.0 mi NE 9.2 mph - N/A   Clear
6:13 PM 44.1 °F 41.5 °F 23.9 °F 45% 30.20 in 10.0 mi NNE 4.6 mph - N/A   Clear
6:33 PM 43.3 °F 39.2 °F 22.8 °F 44% 30.21 in 10.0 mi NNE 6.9 mph - N/A   Clear
6:53 PM 42.4 °F 36.1 °F 21.6 °F 44% 30.21 in 10.0 mi NNE 11.5 mph 17.3 mph N/A   Clear
7:13 PM 41.5 °F 37.8 °F 21.9 °F 46% 30.22 in 10.0 mi NNE 5.8 mph - N/A   Clear
7:34 PM 41.2 °F 36.6 °F 22.6 °F 48% 30.22 in 10.0 mi NNE 6.9 mph - N/A   Clear
7:53 PM 41.2 °F 36.6 °F 22.6 °F 48% 30.22 in 10.0 mi NNE 6.9 mph - N/A   Clear
8:13 PM 41.0 °F 38.0 °F 22.8 °F 48% 30.22 in 10.0 mi North 4.6 mph - N/A   Clear
8:34 PM 40.3 °F 36.3 °F 23.2 °F 51% 30.22 in 10.0 mi NNW 5.8 mph - N/A   Clear
8:53 PM 40.3 °F 36.3 °F 23.5 °F 51% 30.21 in 10.0 mi North 5.8 mph - N/A   Clear
9:14 PM 40.1 °F 36.1 °F 23.7 °F 52% 30.21 in 10.0 mi North 5.8 mph - N/A   Clear
9:34 PM 39.9 °F 35.1 °F 23.9 °F 53% 30.21 in 10.0 mi North 6.9 mph - N/A   Clear
9:53 PM 39.7 °F 34.3 °F 24.3 °F 54% 30.20 in 10.0 mi North 8.1 mph - N/A   Clear
10:14 PM 39.2 °F 35.9 °F 24.8 °F 56% 30.20 in 10.0 mi NNW 4.6 mph - N/A   Clear
10:34 PM 38.3 °F 33.9 °F 24.8 °F 58% 30.20 in 10.0 mi NNW 5.8 mph - N/A   Clear
10:53 PM 37.9 °F 32.7 °F 25.3 °F 60% 30.20 in 10.0 mi NNW 6.9 mph - N/A   Clear
11:14 PM 38.1 °F 32.9 °F 25.5 °F 61% 30.20 in 10.0 mi NNW 6.9 mph - N/A   Clear
11:34 PM 38.1 °F 33.7 °F 26.2 °F 62% 30.20 in 10.0 mi NNW 5.8 mph - N/A   Clear
11:53 PM 38.3 °F 32.5 °F 27.0 °F 64% 30.19 in 10.0 mi NNW 8.1 mph - N/A   Clear